createdAt,value
2023-02-06T00:01:28.976Z,72.49
2023-02-06T00:03:57.182Z,72.51
2023-02-06T00:06:26.582Z,72.42
2023-02-06T00:08:56.191Z,72.45
2023-02-06T00:11:24.590Z,72.36
2023-02-06T00:13:53.154Z,72.33
2023-02-06T00:16:23.954Z,72.33
2023-02-06T00:18:52.998Z,72.32
2023-02-06T00:21:24.647Z,72.38
2023-02-06T00:23:54.048Z,72.34
2023-02-06T00:26:24.368Z,72.35
2023-02-06T00:28:52.953Z,72.38
2023-02-06T00:31:21.358Z,72.47
2023-02-06T00:33:49.759Z,72.42
2023-02-06T00:36:18.195Z,72.41
2023-02-06T00:38:46.513Z,72.35
2023-02-06T00:41:15.474Z,72.35
2023-02-06T00:43:46.315Z,72.32
2023-02-06T00:46:14.626Z,72.42
2023-02-06T00:48:44.741Z,72.43
2023-02-06T00:51:12.964Z,72.47
2023-02-06T00:53:41.164Z,72.57
2023-02-06T00:56:09.465Z,72.59
2023-02-06T00:58:38.507Z,72.62
2023-02-06T01:01:08.241Z,72.74
2023-02-06T01:03:36.434Z,72.79
2023-02-06T01:06:04.802Z,72.74
2023-02-06T01:08:33.071Z,72.77
2023-02-06T01:11:01.425Z,72.77
2023-02-06T01:13:29.799Z,72.80
2023-02-06T01:15:58.102Z,72.80
2023-02-06T01:18:27.875Z,72.79
2023-02-06T01:20:56.120Z,72.85
2023-02-06T01:23:26.069Z,72.90
2023-02-06T01:25:54.278Z,72.96
2023-02-06T01:28:22.501Z,72.92
2023-02-06T01:30:51.377Z,73.01
2023-02-06T01:33:19.640Z,73.04
2023-02-06T01:35:56.329Z,73.09
2023-02-06T01:38:24.541Z,73.12
2023-02-06T01:40:57.791Z,73.14
2023-02-06T01:43:28.788Z,73.15
2023-02-06T01:45:57.638Z,73.24
2023-02-06T01:48:32.855Z,73.26
2023-02-06T01:51:04.816Z,73.29
2023-02-06T01:53:33.855Z,73.32
2023-02-06T01:56:05.711Z,73.44
2023-02-06T01:58:38.883Z,73.51
2023-02-06T02:01:08.501Z,73.52
2023-02-06T02:03:39.821Z,73.58
2023-02-06T02:06:14.117Z,73.65
2023-02-06T02:08:44.191Z,73.56
2023-02-06T02:11:16.677Z,73.65
2023-02-06T02:13:45.288Z,73.77
2023-02-06T02:16:19.321Z,73.67
2023-02-06T02:19:00.782Z,73.74
2023-02-06T02:22:00.736Z,73.73
2023-02-06T02:24:50.852Z,73.79
2023-02-06T02:27:44.422Z,73.85
2023-02-06T02:30:42.183Z,73.80
2023-02-06T02:33:36.713Z,73.67
2023-02-06T02:36:15.749Z,73.52
2023-02-06T02:38:55.790Z,73.44
2023-02-06T02:41:30.937Z,73.62
2023-02-06T02:44:06.148Z,73.57
2023-02-06T02:46:38.484Z,73.38
2023-02-06T02:49:11.503Z,73.47
2023-02-06T02:51:42.542Z,73.55
2023-02-06T02:54:11.501Z,73.56
2023-02-06T02:56:39.801Z,73.67
2023-02-06T02:59:12.165Z,73.74
2023-02-06T03:01:43.842Z,73.72
2023-02-06T03:04:15.931Z,73.77
2023-02-06T03:06:59.398Z,73.81
2023-02-06T03:09:40.803Z,73.96
2023-02-06T03:12:18.263Z,74.04
2023-02-06T03:14:51.772Z,74.11
2023-02-06T03:17:28.275Z,74.04
2023-02-06T03:19:59.424Z,74.04
2023-02-06T03:22:30.505Z,74.23
2023-02-06T03:25:00.247Z,74.37
2023-02-06T03:27:29.982Z,74.55
2023-02-06T03:30:00.254Z,74.61
2023-02-06T03:32:32.404Z,74.44
2023-02-06T03:35:04.419Z,74.46
2023-02-06T03:37:36.481Z,74.61
2023-02-06T03:40:07.060Z,74.71
2023-02-06T03:42:38.421Z,74.83
2023-02-06T03:45:11.119Z,74.74
2023-02-06T03:47:40.709Z,74.86
2023-02-06T03:50:11.956Z,74.69
2023-02-06T03:52:45.861Z,74.97
2023-02-06T03:55:18.759Z,75.00
2023-02-06T03:57:51.027Z,75.04
2023-02-06T04:00:19.475Z,74.99
2023-02-06T04:02:49.241Z,74.95
2023-02-06T04:05:19.944Z,75.01
2023-02-06T04:07:49.557Z,74.98
2023-02-06T04:10:17.857Z,75.01
2023-02-06T04:12:46.070Z,75.05
2023-02-06T04:15:14.345Z,75.14
2023-02-06T04:17:57.424Z,75.26
2023-02-06T04:20:26.051Z,75.27
2023-02-06T04:22:55.644Z,75.10
2023-02-06T04:25:23.975Z,75.31
2023-02-06T04:27:52.501Z,75.05
2023-02-06T04:30:20.855Z,74.86
2023-02-06T04:32:49.056Z,75.23
2023-02-06T04:35:17.451Z,75.40
2023-02-06T04:37:45.692Z,75.45
2023-02-06T04:40:15.447Z,75.44
2023-02-06T04:42:43.665Z,75.12
2023-02-06T04:45:11.880Z,75.31
2023-02-06T04:47:40.459Z,75.76
2023-02-06T04:50:10.503Z,75.57
2023-02-06T04:52:38.893Z,75.52
2023-02-06T04:55:07.758Z,75.53
2023-02-06T04:57:37.516Z,75.34
2023-02-06T05:00:06.698Z,75.32
2023-02-06T05:02:37.523Z,75.12
2023-02-06T05:05:06.941Z,75.34
2023-02-06T05:07:35.387Z,75.49
2023-02-06T05:10:03.852Z,75.34
2023-02-06T05:12:32.057Z,75.28
2023-02-06T05:15:01.738Z,75.34
2023-02-06T05:17:30.509Z,75.50
2023-02-06T05:19:58.816Z,75.35
2023-02-06T05:22:27.608Z,75.30
2023-02-06T05:24:55.860Z,75.70
2023-02-06T05:27:24.670Z,75.47
2023-02-06T05:29:52.920Z,75.54
2023-02-06T05:32:22.631Z,75.95
2023-02-06T05:34:50.838Z,75.75
2023-02-06T05:37:19.138Z,75.67
2023-02-06T05:39:47.411Z,75.69
2023-02-06T05:42:15.614Z,75.70
2023-02-06T05:44:43.887Z,75.81
2023-02-06T05:47:12.129Z,75.86
2023-02-06T05:49:43.988Z,76.14
2023-02-06T05:52:12.747Z,76.02
2023-02-06T05:54:41.145Z,75.82
2023-02-06T05:57:09.387Z,76.22
2023-02-06T05:59:38.016Z,76.47
2023-02-06T06:02:06.631Z,76.34
2023-02-06T06:04:35.002Z,76.20
2023-02-06T06:07:04.952Z,76.59
2023-02-06T06:09:33.234Z,76.51
2023-02-06T06:12:01.455Z,76.32
2023-02-06T06:14:29.770Z,76.41
2023-02-06T06:16:58.040Z,76.17
2023-02-06T06:19:26.227Z,76.23
2023-02-06T06:21:56.044Z,76.41
2023-02-06T06:24:27.528Z,76.38
2023-02-06T06:26:55.919Z,76.57
2023-02-06T06:29:24.092Z,76.58
2023-02-06T06:31:52.405Z,76.53
2023-02-06T06:34:20.652Z,76.20
2023-02-06T06:36:48.840Z,75.87
2023-02-06T06:39:17.128Z,75.88
2023-02-06T06:41:46.838Z,76.14
2023-02-06T06:44:15.066Z,76.23
2023-02-06T06:46:43.275Z,76.36
2023-02-06T06:49:11.508Z,76.33
2023-02-06T06:51:39.808Z,76.29
2023-02-06T06:54:08.064Z,76.17
2023-02-06T06:56:36.262Z,76.08
2023-02-06T06:59:05.832Z,76.50
2023-02-06T07:01:34.185Z,76.82
2023-02-06T07:04:02.392Z,77.49
2023-02-06T07:06:30.618Z,77.75
2023-02-06T07:08:58.821Z,77.77
2023-02-06T07:11:27.112Z,77.56
2023-02-06T07:13:55.427Z,77.27
2023-02-06T07:16:25.221Z,77.05
2023-02-06T07:18:53.478Z,76.88
2023-02-06T07:21:21.709Z,77.11
2023-02-06T07:23:49.944Z,77.21
2023-02-06T07:26:18.179Z,77.22
2023-02-06T07:28:48.281Z,77.15
2023-02-06T07:31:18.957Z,77.11
2023-02-06T07:33:48.845Z,77.21
2023-02-06T07:36:20.523Z,77.72
2023-02-06T07:38:48.971Z,78.48
2023-02-06T07:41:18.015Z,79.00
2023-02-06T07:43:46.261Z,78.82
2023-02-06T07:46:14.568Z,78.18
2023-02-06T07:48:42.803Z,77.33
2023-02-06T07:51:12.460Z,77.09
2023-02-06T07:53:40.943Z,77.49
2023-02-06T07:56:14.363Z,77.63
2023-02-06T07:58:42.799Z,77.84
2023-02-06T08:01:11.187Z,78.34
2023-02-06T08:03:39.870Z,78.80
2023-02-06T08:06:14.704Z,79.04
2023-02-06T08:08:43.624Z,78.91
2023-02-06T08:11:13.814Z,78.55
2023-02-06T08:13:42.896Z,78.28
2023-02-06T08:16:13.667Z,78.40
2023-02-06T08:18:42.638Z,78.55
2023-02-06T08:21:14.776Z,78.07
2023-02-06T08:23:44.123Z,77.59
2023-02-06T08:26:15.665Z,77.33
2023-02-06T08:28:44.697Z,77.29
2023-02-06T08:31:14.743Z,76.84
2023-02-06T08:33:43.448Z,76.80
2023-02-06T08:36:14.182Z,77.03
2023-02-06T08:38:42.968Z,77.41
2023-02-06T08:41:18.914Z,77.34
2023-02-06T08:43:47.727Z,76.95
2023-02-06T08:46:17.464Z,76.52
2023-02-06T08:48:46.273Z,76.42
2023-02-06T08:51:16.516Z,76.30
2023-02-06T08:53:44.851Z,75.79
2023-02-06T08:56:13.866Z,75.57
2023-02-06T08:58:42.214Z,75.50
2023-02-06T09:01:13.785Z,75.57
2023-02-06T09:03:42.819Z,75.60
2023-02-06T09:06:11.777Z,75.34
2023-02-06T09:08:42.571Z,74.88
2023-02-06T09:11:11.906Z,74.84
2023-02-06T09:13:40.513Z,74.61
2023-02-06T09:16:09.382Z,74.26
2023-02-06T09:18:39.141Z,74.07
2023-02-06T09:21:10.199Z,73.48
2023-02-06T09:23:39.647Z,73.22
2023-02-06T09:26:09.271Z,72.74
2023-02-06T09:28:38.141Z,72.54
2023-02-06T09:31:08.104Z,72.57
2023-02-06T09:33:36.584Z,72.53
2023-02-06T09:36:06.984Z,72.04
2023-02-06T09:38:36.015Z,71.77
2023-02-06T09:41:07.851Z,71.54
2023-02-06T09:43:37.597Z,71.19
2023-02-06T09:46:08.968Z,70.90
2023-02-06T09:48:40.712Z,70.60
2023-02-06T09:51:16.497Z,70.60
2023-02-06T09:53:56.950Z,70.54
2023-02-06T09:56:33.816Z,70.57
2023-02-06T09:59:13.730Z,70.61
2023-02-06T10:01:47.099Z,70.57
2023-02-06T10:04:33.618Z,70.62
2023-02-06T10:07:17.520Z,70.77
2023-02-06T10:09:50.717Z,70.84
2023-02-06T10:12:24.798Z,70.95
2023-02-06T10:14:59.427Z,70.91
2023-02-06T10:17:31.511Z,71.02
2023-02-06T10:20:06.289Z,71.26
2023-02-06T10:22:40.100Z,71.32
2023-02-06T10:25:23.391Z,71.00
2023-02-06T10:28:02.761Z,70.22
2023-02-06T10:30:51.545Z,69.80
2023-02-06T10:33:26.135Z,69.92
2023-02-06T10:36:03.659Z,69.59
2023-02-06T10:38:52.765Z,69.26
2023-02-06T10:41:30.841Z,69.07
2023-02-06T10:44:03.131Z,69.42
2023-02-06T10:46:48.258Z,68.82
2023-02-06T10:49:23.039Z,69.21
2023-02-06T10:51:54.507Z,69.49
2023-02-06T10:54:26.386Z,69.28
2023-02-06T10:56:57.716Z,69.61
2023-02-06T10:59:30.108Z,69.22
2023-02-06T11:02:13.786Z,69.05
2023-02-06T11:04:45.711Z,69.31
2023-02-06T11:07:17.566Z,69.04
2023-02-06T11:09:46.007Z,69.51
2023-02-06T11:12:30.086Z,69.15
2023-02-06T11:15:01.666Z,70.16
2023-02-06T11:17:32.216Z,69.35
2023-02-06T11:20:14.752Z,68.91
2023-02-06T11:22:52.281Z,69.58
2023-02-06T11:25:26.333Z,70.27
2023-02-06T11:27:55.593Z,69.74
2023-02-06T11:30:33.564Z,69.76
2023-02-06T11:33:06.484Z,69.78
2023-02-06T11:35:39.838Z,69.97
2023-02-06T11:38:18.902Z,70.98
2023-02-06T11:40:56.480Z,70.45
2023-02-06T11:43:26.575Z,70.73
2023-02-06T11:46:10.021Z,69.66
2023-02-06T11:48:44.030Z,71.45
2023-02-06T11:51:13.908Z,71.37
2023-02-06T11:53:57.088Z,71.04
2023-02-06T11:56:25.715Z,71.33
2023-02-06T11:59:07.104Z,71.33
2023-02-06T12:01:43.545Z,71.33
2023-02-06T12:04:25.093Z,71.13
2023-02-06T12:07:02.026Z,71.32
2023-02-06T12:09:30.487Z,71.87
2023-02-06T12:12:02.665Z,71.16
2023-02-06T12:14:37.211Z,71.15
2023-02-06T12:17:10.839Z,70.68
2023-02-06T12:19:49.752Z,71.67
2023-02-06T12:22:22.329Z,72.16
2023-02-06T12:24:53.127Z,72.39
2023-02-06T12:27:26.735Z,72.25
2023-02-06T12:30:01.767Z,73.22
2023-02-06T12:32:33.905Z,70.85
2023-02-06T12:35:15.830Z,69.97
2023-02-06T12:37:52.821Z,72.01
2023-02-06T12:40:30.320Z,72.19
2023-02-06T12:43:02.753Z,72.74
2023-02-06T12:45:41.150Z,71.33
2023-02-06T12:48:16.517Z,71.78
2023-02-06T12:50:50.193Z,71.58
2023-02-06T12:53:21.286Z,73.16
2023-02-06T12:55:56.322Z,71.84
2023-02-06T12:58:28.925Z,73.24
2023-02-06T13:01:30.633Z,72.41
2023-02-06T13:04:02.562Z,75.24
2023-02-06T13:06:40.752Z,72.99
2023-02-06T13:09:10.042Z,73.90
2023-02-06T13:11:42.607Z,73.83
2023-02-06T13:14:19.293Z,71.66
2023-02-06T13:16:53.817Z,74.07
2023-02-06T13:19:26.852Z,74.37
2023-02-06T13:22:24.163Z,71.48
2023-02-06T13:24:52.911Z,73.78
2023-02-06T13:27:25.699Z,75.22
2023-02-06T13:29:54.857Z,74.44
2023-02-06T13:32:45.210Z,73.52
2023-02-06T13:35:23.030Z,73.17
2023-02-06T13:38:11.885Z,73.15
2023-02-06T13:40:40.466Z,72.51
2023-02-06T13:43:17.240Z,73.49
2023-02-06T13:45:50.546Z,74.11
2023-02-06T13:48:54.612Z,72.92
2023-02-06T13:51:41.221Z,73.22
2023-02-06T13:54:43.875Z,73.19
2023-02-06T13:57:26.916Z,73.84
2023-02-06T14:00:00.481Z,73.76
2023-02-06T14:02:36.478Z,73.79
2023-02-06T14:08:25.665Z,74.92
2023-02-06T14:11:20.518Z,73.73
2023-02-06T14:14:19.105Z,73.66
2023-02-06T14:16:52.673Z,74.54
2023-02-06T14:19:30.428Z,73.43
2023-02-06T14:22:10.106Z,73.84
2023-02-06T14:25:04.131Z,74.21
2023-02-06T14:27:44.591Z,74.14
2023-02-06T14:30:24.963Z,73.42
2023-02-06T14:33:05.819Z,75.00
2023-02-06T14:35:47.767Z,74.25
2023-02-06T14:38:47.739Z,74.33
2023-02-06T14:41:16.921Z,74.57
2023-02-06T14:43:48.562Z,74.57
2023-02-06T14:46:19.202Z,74.60
2023-02-06T14:48:51.862Z,74.54
2023-02-06T14:51:24.504Z,74.13
2023-02-06T14:53:55.733Z,74.82
2023-02-06T14:56:29.894Z,74.97
2023-02-06T14:59:09.755Z,74.17
2023-02-06T15:01:38.895Z,74.22
2023-02-06T15:04:12.927Z,74.36
2023-02-06T15:06:44.459Z,74.20
2023-02-06T15:09:25.279Z,74.23
2023-02-06T15:11:56.456Z,75.00
2023-02-06T15:14:28.246Z,72.94
2023-02-06T15:16:59.796Z,74.67
2023-02-06T15:19:30.627Z,74.71
2023-02-06T15:22:01.780Z,74.83
2023-02-06T15:24:50.712Z,73.75
2023-02-06T15:27:30.678Z,73.99
2023-02-06T15:30:01.269Z,74.35
2023-02-06T15:32:33.370Z,74.31
2023-02-06T15:35:02.775Z,74.43
2023-02-06T15:37:32.808Z,75.15
2023-02-06T15:40:06.912Z,74.39
2023-02-06T15:42:35.912Z,74.15
2023-02-06T15:45:06.708Z,74.67
2023-02-06T15:47:35.333Z,73.64
2023-02-06T15:50:10.952Z,74.67
2023-02-06T15:52:42.993Z,74.81
2023-02-06T15:55:25.561Z,73.81
2023-02-06T15:57:55.833Z,74.35
2023-02-06T16:00:28.616Z,75.41
2023-02-06T16:03:02.797Z,74.59
2023-02-06T16:05:34.040Z,74.20
2023-02-06T16:08:03.602Z,74.93
2023-02-06T16:10:35.470Z,73.62
2023-02-06T16:13:10.326Z,74.41
2023-02-06T16:15:41.875Z,74.44
2023-02-06T16:18:26.906Z,74.16
2023-02-06T16:21:20.004Z,73.83
2023-02-06T16:23:52.061Z,74.15
2023-02-06T16:26:23.638Z,73.71
2023-02-06T16:28:57.864Z,74.00
2023-02-06T16:31:35.131Z,74.28
2023-02-06T16:34:04.131Z,74.34
2023-02-06T16:36:33.950Z,74.13
2023-02-06T16:39:04.535Z,73.91
2023-02-06T16:41:34.870Z,74.27
2023-02-06T16:44:04.281Z,73.96
2023-02-06T16:46:34.132Z,73.38
2023-02-06T16:49:02.625Z,73.83
2023-02-06T16:51:33.122Z,73.73
2023-02-06T16:54:01.495Z,73.77
2023-02-06T16:56:29.907Z,73.64
2023-02-06T16:58:58.185Z,73.54
2023-02-06T17:01:29.714Z,73.38
2023-02-06T17:03:59.594Z,73.46
2023-02-06T17:06:30.155Z,73.12
2023-02-06T17:09:03.374Z,73.14
2023-02-06T17:11:32.268Z,72.96
2023-02-06T17:14:00.825Z,72.74
2023-02-06T17:16:30.066Z,72.27
2023-02-06T17:18:59.727Z,72.26
2023-02-06T17:21:32.639Z,72.09
2023-02-06T17:24:01.247Z,71.90
2023-02-06T17:26:29.615Z,71.77
2023-02-06T17:28:57.959Z,71.77
2023-02-06T17:31:26.383Z,71.62
2023-02-06T17:33:54.808Z,71.41
2023-02-06T17:36:29.542Z,71.23
2023-02-06T17:38:58.923Z,71.06
2023-02-06T17:41:27.229Z,71.15
2023-02-06T17:43:55.628Z,71.08
2023-02-06T17:46:24.357Z,71.03
2023-02-06T17:48:52.633Z,70.75
2023-02-06T17:51:20.994Z,70.90
2023-02-06T17:53:51.863Z,70.85
2023-02-06T17:56:20.986Z,71.09
2023-02-06T17:58:49.412Z,70.98
2023-02-06T18:01:20.657Z,71.59
2023-02-06T18:03:48.961Z,71.72
2023-02-06T18:06:18.378Z,71.91
2023-02-06T18:08:47.011Z,71.79
2023-02-06T18:11:19.199Z,72.05
2023-02-06T18:13:48.619Z,71.66
2023-02-06T18:16:19.150Z,71.82
2023-02-06T18:18:48.327Z,72.35
2023-02-06T18:21:18.915Z,72.09
2023-02-06T18:23:47.775Z,72.33
2023-02-06T18:26:18.387Z,72.29
2023-02-06T18:28:46.814Z,72.40
2023-02-06T18:31:24.567Z,72.41
2023-02-06T18:33:53.205Z,72.38
2023-02-06T18:36:22.399Z,72.42
2023-02-06T18:38:50.691Z,72.58
2023-02-06T18:41:37.855Z,72.67
2023-02-06T18:44:07.884Z,72.49
2023-02-06T18:46:38.011Z,72.29
2023-02-06T18:49:06.685Z,72.32
2023-02-06T18:51:34.968Z,72.47
2023-02-06T18:54:03.261Z,72.13
2023-02-06T18:56:33.802Z,72.30
2023-02-06T18:59:03.916Z,72.00
2023-02-06T19:01:33.191Z,72.15
2023-02-06T19:04:01.514Z,72.16
2023-02-06T19:06:35.369Z,72.19
2023-02-06T19:09:07.089Z,72.06
2023-02-06T19:11:37.717Z,71.89
2023-02-06T19:14:07.812Z,71.75
2023-02-06T19:16:38.595Z,71.89
2023-02-06T19:19:08.660Z,71.82
2023-02-06T19:21:36.952Z,71.90
2023-02-06T19:24:06.220Z,71.92
2023-02-06T19:26:34.892Z,71.94
2023-02-06T19:29:05.050Z,71.88
2023-02-06T19:31:34.962Z,71.87
2023-02-06T19:34:03.652Z,71.80
2023-02-06T19:36:31.913Z,71.85
2023-02-06T19:39:02.442Z,71.83
2023-02-06T19:41:32.970Z,71.98
2023-02-06T19:44:05.848Z,71.79
2023-02-06T19:46:35.186Z,72.00
2023-02-06T19:49:06.046Z,72.00
2023-02-06T19:51:39.885Z,72.09
2023-02-06T19:54:08.652Z,72.12
2023-02-06T19:56:39.619Z,72.03
2023-02-06T19:59:17.959Z,72.09
2023-02-06T20:01:46.710Z,72.17
2023-02-06T20:04:15.567Z,72.26
2023-02-06T20:06:44.898Z,72.20
2023-02-06T20:09:14.767Z,72.19
2023-02-06T20:11:43.769Z,72.29
2023-02-06T20:14:13.914Z,72.17
2023-02-06T20:16:43.787Z,72.28
2023-02-06T20:19:14.212Z,72.35
2023-02-06T20:21:45.191Z,72.36
2023-02-06T20:24:18.447Z,72.36
2023-02-06T20:26:47.030Z,72.29
2023-02-06T20:29:24.291Z,72.14
2023-02-06T20:31:53.795Z,72.16
2023-02-06T20:34:23.102Z,72.27
2023-02-06T20:36:52.495Z,72.29
2023-02-06T20:39:21.531Z,72.41
2023-02-06T20:41:50.917Z,72.50
2023-02-06T20:44:21.809Z,72.49
2023-02-06T20:46:50.541Z,72.55
2023-02-06T20:49:20.579Z,72.60
2023-02-06T20:51:50.150Z,72.54
2023-02-06T20:54:19.475Z,72.56
2023-02-06T20:56:48.196Z,72.72
2023-02-06T20:59:18.364Z,72.76
2023-02-06T21:01:48.332Z,72.87
2023-02-06T21:04:17.952Z,72.80
2023-02-06T21:06:47.982Z,72.76
2023-02-06T21:09:19.778Z,72.82
2023-02-06T21:11:50.060Z,72.76
2023-02-06T21:14:19.503Z,72.73
2023-02-06T21:16:49.398Z,72.53
2023-02-06T21:19:20.201Z,72.45
2023-02-06T21:21:48.809Z,72.57
2023-02-06T21:24:17.970Z,72.49
2023-02-06T21:26:46.317Z,72.61
2023-02-06T21:29:16.241Z,72.72
2023-02-06T21:31:46.152Z,72.80
2023-02-06T21:34:18.178Z,73.07
2023-02-06T21:36:47.387Z,73.19
2023-02-06T21:39:18.669Z,73.14
2023-02-06T21:41:47.540Z,73.16
2023-02-06T21:44:15.780Z,73.24
2023-02-06T21:46:44.344Z,73.29
2023-02-06T21:49:12.633Z,73.25
2023-02-06T21:51:42.757Z,73.24
2023-02-06T21:54:11.595Z,73.44
2023-02-06T21:56:40.423Z,73.54
2023-02-06T21:59:09.229Z,73.43
2023-02-06T22:01:40.569Z,73.37
2023-02-06T22:04:10.144Z,73.46
2023-02-06T22:06:39.477Z,73.48
2023-02-06T22:09:12.671Z,73.41
2023-02-06T22:11:41.655Z,73.28
2023-02-06T22:14:12.790Z,73.29
2023-02-06T22:16:41.423Z,73.38
2023-02-06T22:19:10.862Z,73.31
2023-02-06T22:21:40.103Z,73.28
2023-02-06T22:24:11.463Z,73.12
2023-02-06T22:26:41.501Z,73.24
2023-02-06T22:29:12.973Z,73.62
2023-02-06T22:31:43.431Z,73.77
2023-02-06T22:34:16.194Z,73.86
2023-02-06T22:36:45.702Z,73.80
2023-02-06T22:39:16.171Z,73.63
2023-02-06T22:41:46.353Z,74.02
2023-02-06T22:44:16.507Z,74.12
2023-02-06T22:46:46.646Z,74.06
2023-02-06T22:49:15.296Z,73.99
2023-02-06T22:51:43.953Z,73.99
2023-02-06T22:54:12.715Z,74.08
2023-02-06T22:56:42.885Z,74.17
2023-02-06T22:59:13.224Z,74.12
2023-02-06T23:01:43.554Z,74.09
2023-02-06T23:04:15.627Z,74.07
2023-02-06T23:06:44.410Z,73.99
2023-02-06T23:09:15.681Z,73.91
2023-02-06T23:11:45.853Z,73.67
2023-02-06T23:14:15.671Z,73.47
2023-02-06T23:16:44.257Z,73.34
2023-02-06T23:19:14.201Z,73.69
2023-02-06T23:21:44.418Z,73.90
2023-02-06T23:24:13.382Z,73.93
2023-02-06T23:26:43.108Z,73.89
2023-02-06T23:29:15.849Z,74.00
2023-02-06T23:31:44.903Z,74.57
2023-02-06T23:34:13.499Z,74.47
2023-02-06T23:36:42.101Z,74.62
2023-02-06T23:39:11.809Z,74.75
2023-02-06T23:41:40.119Z,74.78
2023-02-06T23:44:09.526Z,74.83
2023-02-06T23:46:41.452Z,74.81
2023-02-06T23:49:10.366Z,74.76
2023-02-06T23:51:39.373Z,74.64
2023-02-06T23:54:09.034Z,74.44
2023-02-06T23:56:37.802Z,74.50
2023-02-06T23:59:07.160Z,74.10
